Time;durP1;ratioP1;P1;durP2;ratioP2;P2;SDS_P1;SDS_P2;PMS_P1;PMS_P2;Temp;Humidity;BMP_temperature;BMP_pressure;BME280_temperature;BME280_humidity;BME280_pressure;Samples;Min_cycle;Max_cycle;Signal;HPM_P1;HPM_P2
2023/08/17 00:01:35;;;;;;;5.78;4.95;;;23.10;99.90;;;;;;5040974;28;20049;-80
2023/08/17 00:04:02;;;;;;;5.82;4.78;;;23.10;99.90;;;;;;5052583;28;20059;-80
2023/08/17 00:06:29;;;;;;;5.45;4.88;;;23.10;99.90;;;;;;5057841;28;20041;-80
2023/08/17 00:08:56;;;;;;;7.78;4.43;;;23.00;99.90;;;;;;5046935;28;20085;-80
2023/08/17 00:11:23;;;;;;;6.60;5.50;;;23.00;99.90;;;;;;5065994;28;20049;-81
2023/08/17 00:13:50;;;;;;;6.22;4.68;;;23.00;99.90;;;;;;5057736;28;20093;-80
2023/08/17 00:16:17;;;;;;;8.15;5.38;;;23.00;99.90;;;;;;5052227;28;20405;-80
2023/08/17 00:18:44;;;;;;;7.03;5.13;;;23.00;99.90;;;;;;5051136;28;20147;-80
2023/08/17 00:21:11;;;;;;;8.45;5.75;;;22.90;99.90;;;;;;5037458;28;20045;-80
2023/08/17 00:23:38;;;;;;;6.68;5.43;;;22.90;99.90;;;;;;5045663;28;20485;-80
2023/08/17 00:26:04;;;;;;;8.45;5.80;;;22.90;99.90;;;;;;5033693;28;20057;-80
2023/08/17 00:28:31;;;;;;;7.88;5.30;;;22.90;99.90;;;;;;5052496;28;20069;-80
2023/08/17 00:31:00;;;;;;;7.70;4.97;;;22.90;99.90;;;;;;5050392;28;20041;-80
2023/08/17 00:33:27;;;;;;;7.75;4.97;;;22.90;99.90;;;;;;5047806;28;20041;-80
2023/08/17 00:35:53;;;;;;;7.82;5.55;;;22.80;99.90;;;;;;5052496;28;20049;-80
2023/08/17 00:38:20;;;;;;;8.63;5.85;;;22.80;99.90;;;;;;5046860;28;20042;-80
2023/08/17 00:40:47;;;;;;;5.70;5.15;;;22.80;99.90;;;;;;5045417;28;20041;-80
2023/08/17 00:43:14;;;;;;;7.75;5.82;;;22.80;99.90;;;;;;5054534;28;20049;-80
2023/08/17 00:45:41;;;;;;;5.43;4.90;;;22.80;99.90;;;;;;5044516;28;20080;-80
2023/08/17 00:48:09;;;;;;;8.13;5.22;;;22.70;99.90;;;;;;5047804;28;20518;-80
2023/08/17 00:50:36;;;;;;;6.82;5.47;;;22.70;99.90;;;;;;5065052;28;20087;-80
2023/08/17 00:53:04;;;;;;;9.38;5.32;;;22.70;99.90;;;;;;5045882;28;20057;-80
2023/08/17 00:55:32;;;;;;;7.82;5.25;;;22.70;99.90;;;;;;5040961;28;20052;-80
2023/08/17 00:57:59;;;;;;;8.02;4.93;;;22.70;99.90;;;;;;5037886;28;20080;-80
2023/08/17 01:00:27;;;;;;;8.75;5.18;;;22.60;99.90;;;;;;5054203;28;20056;-80
2023/08/17 01:02:55;;;;;;;7.60;5.05;;;22.60;99.90;;;;;;5046201;28;20049;-80
2023/08/17 01:05:23;;;;;;;9.00;5.40;;;22.60;99.90;;;;;;5050776;28;20132;-80
2023/08/17 01:07:50;;;;;;;6.93;5.28;;;22.60;99.90;;;;;;5048403;28;20045;-80
2023/08/17 01:10:17;;;;;;;7.68;5.80;;;22.60;99.90;;;;;;5045045;28;20475;-80
2023/08/17 01:13:04;;;;;;;8.40;5.25;;;22.60;99.90;;;;;;5035443;28;20129;-79
2023/08/17 01:15:50;;;;;;;7.85;6.18;;;22.50;99.90;;;;;;5037115;28;20104;-79
2023/08/17 01:18:34;;;;;;;8.65;6.38;;;22.50;99.90;;;;;;5047108;28;20458;-80
2023/08/17 01:21:03;;;;;;;7.97;5.25;;;22.50;99.90;;;;;;5050219;28;20044;-80
2023/08/17 01:23:30;;;;;;;9.45;5.03;;;22.50;99.90;;;;;;5045304;28;20414;-80
2023/08/17 01:25:57;;;;;;;8.65;5.47;;;22.50;99.90;;;;;;5049373;28;20041;-80
2023/08/17 01:28:24;;;;;;;7.75;5.80;;;22.40;99.90;;;;;;5050373;28;20095;-80
2023/08/17 01:31:03;;;;;;;7.78;5.07;;;22.40;99.90;;;;;;5050620;28;20042;-80
2023/08/17 01:34:05;;;;;;;5.23;4.63;;;22.30;99.90;;;;;;5042500;28;20128;-80
2023/08/17 01:36:37;;;;;;;9.02;5.10;;;22.30;99.90;;;;;;5015313;28;20785;-80
2023/08/17 01:39:05;;;;;;;7.20;4.75;;;22.30;99.90;;;;;;5040264;28;20053;-80
2023/08/17 01:41:33;;;;;;;5.78;4.60;;;22.30;99.90;;;;;;5049047;28;20041;-80
2023/08/17 01:44:00;;;;;;;7.30;5.10;;;22.20;99.90;;;;;;5052296;28;20054;-80
2023/08/17 01:46:32;;;;;;;6.80;5.53;;;22.20;99.90;;;;;;5050127;28;20077;-80
2023/08/17 01:48:59;;;;;;;7.78;5.38;;;22.10;99.90;;;;;;5047111;28;20136;-80
2023/08/17 01:51:26;;;;;;;7.38;4.97;;;22.20;99.90;;;;;;5026699;28;20042;-80
2023/08/17 01:53:52;;;;;;;5.80;5.07;;;22.10;99.90;;;;;;5048115;28;20068;-80
2023/08/17 01:56:19;;;;;;;6.10;4.88;;;22.10;99.90;;;;;;5050496;28;20114;-80
2023/08/17 01:58:46;;;;;;;5.90;4.63;;;22.10;99.90;;;;;;5051900;28;20094;-80
2023/08/17 02:01:13;;;;;;;8.48;5.20;;;22.10;99.90;;;;;;5051064;28;20049;-80
2023/08/17 02:03:39;;;;;;;9.38;5.43;;;22.10;99.90;;;;;;5044783;28;20096;-79
2023/08/17 02:06:06;;;;;;;6.22;5.10;;;22.10;99.90;;;;;;5051269;28;20040;-80
2023/08/17 02:08:34;;;;;;;8.07;4.80;;;22.10;99.90;;;;;;5054363;28;20080;-80
2023/08/17 02:11:01;;;;;;;6.22;5.00;;;22.00;99.90;;;;;;5048982;28;20084;-79
2023/08/17 02:13:27;;;;;;;9.15;6.13;;;22.00;99.90;;;;;;5050050;28;20055;-80
2023/08/17 02:15:54;;;;;;;9.95;7.72;;;22.00;99.90;;;;;;5049838;28;20081;-80
2023/08/17 02:18:21;;;;;;;8.27;7.25;;;21.90;99.90;;;;;;5042005;28;20077;-80
2023/08/17 02:20:48;;;;;;;11.48;6.90;;;21.90;99.90;;;;;;5047969;28;20489;-80
2023/08/17 02:23:14;;;;;;;8.15;6.65;;;21.80;99.90;;;;;;5054436;28;20052;-80
2023/08/17 02:25:41;;;;;;;7.82;7.03;;;21.80;99.90;;;;;;5046420;28;20099;-80
2023/08/17 02:28:08;;;;;;;8.82;7.93;;;21.70;99.90;;;;;;5050457;28;20518;-81
2023/08/17 02:30:35;;;;;;;9.52;6.90;;;21.70;99.90;;;;;;5054330;28;20091;-79
2023/08/17 02:33:02;;;;;;;9.80;8.07;;;21.60;99.90;;;;;;5040027;28;20049;-80
2023/08/17 02:35:29;;;;;;;16.70;10.02;;;21.60;99.90;;;;;;5064599;28;20048;-80
2023/08/17 02:37:56;;;;;;;9.13;7.70;;;21.60;99.90;;;;;;5056201;28;20045;-80
2023/08/17 02:40:23;;;;;;;7.88;6.65;;;21.50;99.90;;;;;;5047904;28;20044;-80
2023/08/17 02:42:50;;;;;;;9.85;7.65;;;21.50;99.90;;;;;;5032676;28;20053;-80
2023/08/17 02:45:17;;;;;;;10.02;6.22;;;21.50;99.90;;;;;;5053951;28;20393;-80
2023/08/17 02:47:44;;;;;;;8.10;6.18;;;21.60;99.90;;;;;;5042668;28;20064;-79
2023/08/17 02:50:10;;;;;;;7.80;7.00;;;21.60;99.90;;;;;;5051968;28;20052;-80
2023/08/17 02:52:37;;;;;;;10.75;7.38;;;21.50;99.90;;;;;;5041269;28;20152;-80
2023/08/17 02:55:04;;;;;;;12.15;8.32;;;21.60;99.90;;;;;;5044243;28;20057;-80
2023/08/17 02:57:31;;;;;;;10.30;8.55;;;21.60;99.90;;;;;;5045601;28;20095;-80
2023/08/17 02:59:58;;;;;;;9.90;8.63;;;21.60;99.90;;;;;;5052757;28;20111;-80
2023/08/17 03:02:25;;;;;;;9.57;8.40;;;21.60;99.90;;;;;;5047895;28;20103;-80
2023/08/17 03:04:51;;;;;;;9.60;8.50;;;21.50;99.90;;;;;;5047881;28;20065;-80
2023/08/17 03:07:18;;;;;;;10.10;7.68;;;21.50;99.90;;;;;;5052437;28;20048;-80
2023/08/17 03:09:45;;;;;;;11.60;9.05;;;21.50;99.90;;;;;;5048146;28;20136;-79
2023/08/17 03:12:12;;;;;;;11.27;9.23;;;21.50;99.90;;;;;;5044557;28;20099;-80
2023/08/17 03:14:38;;;;;;;14.93;9.30;;;21.50;99.90;;;;;;5049640;28;20523;-80
2023/08/17 03:17:05;;;;;;;10.35;9.25;;;21.50;99.90;;;;;;5048248;28;20076;-80
2023/08/17 03:19:32;;;;;;;10.95;9.35;;;21.50;99.90;;;;;;5047514;28;20056;-80
2023/08/17 03:21:58;;;;;;;13.07;8.98;;;21.40;99.90;;;;;;5051399;28;20497;-80
2023/08/17 03:24:26;;;;;;;13.15;8.65;;;21.40;99.90;;;;;;5048670;28;20045;-80
2023/08/17 03:26:52;;;;;;;9.68;8.55;;;21.50;99.90;;;;;;5043445;28;20037;-80
2023/08/17 03:29:19;;;;;;;10.00;7.43;;;21.50;99.90;;;;;;5032740;28;20083;-80
2023/08/17 03:31:46;;;;;;;7.55;6.82;;;21.50;99.90;;;;;;5053970;28;20041;-80
2023/08/17 03:34:12;;;;;;;9.63;7.32;;;21.60;99.90;;;;;;5053652;28;20171;-80
2023/08/17 03:36:39;;;;;;;8.88;7.97;;;21.60;99.90;;;;;;5053844;28;20076;-80
2023/08/17 03:39:06;;;;;;;12.88;8.77;;;21.70;99.90;;;;;;5054620;28;20046;-80
2023/08/17 03:41:33;;;;;;;10.77;9.07;;;21.70;99.90;;;;;;5046965;28;20045;-80
2023/08/17 03:44:00;;;;;;;13.55;8.88;;;21.70;99.90;;;;;;5051992;28;20046;-80
2023/08/17 03:46:27;;;;;;;12.55;8.43;;;21.70;99.90;;;;;;5054320;28;20052;-80
2023/08/17 03:48:53;;;;;;;15.50;9.88;;;21.70;99.90;;;;;;5049727;28;20128;-80
2023/08/17 03:51:20;;;;;;;10.52;8.02;;;21.70;99.90;;;;;;5050956;28;20049;-80
2023/08/17 03:53:47;;;;;;;16.23;9.80;;;21.70;99.90;;;;;;5030487;28;20072;-80
2023/08/17 03:56:14;;;;;;;13.68;9.50;;;21.70;99.90;;;;;;5046282;28;20103;-79
2023/08/17 03:58:42;;;;;;;13.55;10.00;;;21.70;99.90;;;;;;5055199;28;20045;-79
2023/08/17 04:01:09;;;;;;;14.38;10.27;;;21.70;99.90;;;;;;5057947;28;20113;-79
2023/08/17 04:03:36;;;;;;;11.82;9.98;;;21.70;99.90;;;;;;5052365;28;20075;-79
2023/08/17 04:06:07;;;;;;;13.18;10.07;;;21.70;99.90;;;;;;5052986;28;20447;-80
2023/08/17 04:08:33;;;;;;;12.73;10.15;;;21.70;99.90;;;;;;5056145;28;20045;-80
2023/08/17 04:11:00;;;;;;;10.77;9.68;;;21.80;99.90;;;;;;5042751;28;20096;-80
2023/08/17 04:13:27;;;;;;;14.57;10.98;;;21.80;99.90;;;;;;5047797;28;20045;-80
2023/08/17 04:15:54;;;;;;;12.60;9.80;;;21.80;99.90;;;;;;5055723;28;20048;-80
2023/08/17 04:18:21;;;;;;;14.18;9.80;;;21.80;99.90;;;;;;5049301;28;20049;-80
2023/08/17 04:20:48;;;;;;;15.40;9.80;;;21.80;99.90;;;;;;5051437;28;20049;-80
2023/08/17 04:23:14;;;;;;;15.85;11.20;;;21.70;99.90;;;;;;5055094;28;20045;-80
2023/08/17 04:25:43;;;;;;;13.23;10.98;;;21.70;99.90;;;;;;5064882;28;20046;-80
2023/08/17 04:28:10;;;;;;;14.75;11.68;;;21.70;99.90;;;;;;5047463;28;20053;-80
2023/08/17 04:30:38;;;;;;;12.82;10.60;;;21.70;99.90;;;;;;5055764;28;20144;-80
2023/08/17 04:33:05;;;;;;;16.92;11.10;;;21.70;99.90;;;;;;5049345;28;20057;-80
2023/08/17 04:35:31;;;;;;;15.48;11.57;;;21.70;99.90;;;;;;5047886;28;20061;-80
2023/08/17 04:37:58;;;;;;;16.48;12.00;;;21.70;99.90;;;;;;5050229;28;20658;-80
2023/08/17 04:40:25;;;;;;;16.60;11.85;;;21.80;99.90;;;;;;5049815;28;20049;-80
2023/08/17 04:42:51;;;;;;;17.10;14.30;;;21.70;99.90;;;;;;5045575;28;20041;-80
2023/08/17 04:45:18;;;;;;;19.35;15.07;;;21.70;99.90;;;;;;5053218;28;20045;-80
2023/08/17 04:47:45;;;;;;;19.38;13.70;;;21.60;99.90;;;;;;5051027;28;20546;-80
2023/08/17 04:50:16;;;;;;;22.17;13.88;;;21.60;99.90;;;;;;5048842;28;20049;-80
2023/08/17 04:52:43;;;;;;;20.95;14.82;;;21.60;99.90;;;;;;5048237;28;20090;-80
2023/08/17 04:55:11;;;;;;;23.40;14.73;;;21.50;99.90;;;;;;5045812;28;20056;-79
2023/08/17 04:57:38;;;;;;;23.05;16.15;;;21.50;99.90;;;;;;5037172;28;20046;-79
2023/08/17 05:00:09;;;;;;;19.85;15.55;;;21.50;99.90;;;;;;5034225;28;20398;-79
2023/08/17 05:02:36;;;;;;;24.25;16.45;;;21.50;99.90;;;;;;5054175;28;20037;-80
2023/08/17 05:05:06;;;;;;;22.60;15.02;;;21.50;99.90;;;;;;5045958;28;20124;-80
2023/08/17 05:07:33;;;;;;;25.27;17.40;;;21.50;99.90;;;;;;5047990;28;20045;-80
2023/08/17 05:10:00;;;;;;;29.20;17.10;;;21.60;99.90;;;;;;5050531;28;20049;-80
2023/08/17 05:12:27;;;;;;;26.90;18.23;;;21.60;99.90;;;;;;5047205;28;20048;-80
2023/08/17 05:14:54;;;;;;;28.80;17.02;;;21.60;99.90;;;;;;5053021;28;20052;-80
2023/08/17 05:17:21;;;;;;;31.75;17.15;;;21.60;99.90;;;;;;5054953;28;20460;-80
2023/08/17 05:19:47;;;;;;;28.17;17.55;;;21.60;99.90;;;;;;5046304;28;20075;-80
2023/08/17 05:22:14;;;;;;;22.98;15.80;;;21.60;99.90;;;;;;5049919;28;20053;-80
2023/08/17 05:24:41;;;;;;;25.73;17.80;;;21.60;99.90;;;;;;5053139;28;20072;-80
2023/08/17 05:27:08;;;;;;;28.38;17.30;;;21.70;99.90;;;;;;5042511;28;20049;-80
2023/08/17 05:29:35;;;;;;;31.75;18.23;;;21.70;99.90;;;;;;5052646;28;20068;-80
2023/08/17 05:32:01;;;;;;;32.47;18.70;;;21.70;99.90;;;;;;5054095;28;20075;-80
2023/08/17 05:34:28;;;;;;;42.65;19.05;;;21.70;99.90;;;;;;5034494;28;20057;-80
2023/08/17 05:36:55;;;;;;;44.95;19.20;;;21.70;99.90;;;;;;5031885;28;20053;-80
2023/08/17 05:39:22;;;;;;;35.78;18.05;;;21.80;99.90;;;;;;5054228;28;20049;-80
2023/08/17 05:41:48;;;;;;;31.67;18.65;;;21.80;99.90;;;;;;5041168;28;20049;-80
2023/08/17 05:44:15;;;;;;;34.53;18.23;;;21.80;99.90;;;;;;5050344;28;20052;-79
2023/08/17 05:46:42;;;;;;;27.60;17.65;;;21.90;99.90;;;;;;5054565;28;20041;-80
2023/08/17 05:49:09;;;;;;;21.45;15.50;;;21.90;99.90;;;;;;5043968;28;20045;-79
2023/08/17 05:51:35;;;;;;;33.55;16.08;;;21.90;99.90;;;;;;5047615;28;20110;-79
2023/08/17 05:54:03;;;;;;;22.33;14.95;;;22.00;99.90;;;;;;5052773;28;20476;-79
2023/08/17 05:56:29;;;;;;;21.20;14.60;;;22.00;99.90;;;;;;5046881;28;20053;-79
2023/08/17 05:58:56;;;;;;;18.73;13.93;;;22.00;99.90;;;;;;5049943;28;20057;-80
2023/08/17 06:01:23;;;;;;;23.02;14.07;;;22.00;99.90;;;;;;5053248;28;20045;-80
2023/08/17 06:03:50;;;;;;;19.23;13.80;;;22.10;99.90;;;;;;5048976;28;20037;-80
2023/08/17 06:06:16;;;;;;;14.60;11.27;;;22.20;99.90;;;;;;5043598;28;20128;-80
2023/08/17 06:08:43;;;;;;;14.90;10.88;;;22.30;99.90;;;;;;5024833;28;20042;-80
2023/08/17 06:11:10;;;;;;;14.05;9.93;;;22.40;99.90;;;;;;5038902;28;20464;-80
2023/08/17 06:13:36;;;;;;;12.75;9.98;;;22.40;99.90;;;;;;5045329;28;20044;-80
2023/08/17 06:16:03;;;;;;;13.32;10.52;;;22.50;99.90;;;;;;5050860;28;20083;-80
2023/08/17 06:18:30;;;;;;;13.95;11.30;;;22.50;99.90;;;;;;5049268;28;20100;-80
2023/08/17 06:20:57;;;;;;;13.82;10.30;;;22.70;99.90;;;;;;5043723;28;20515;-80
2023/08/17 06:23:24;;;;;;;11.52;10.02;;;22.60;99.90;;;;;;5050767;28;20111;-80
2023/08/17 06:25:51;;;;;;;12.77;9.98;;;22.70;99.90;;;;;;5053015;28;20045;-80
2023/08/17 06:28:18;;;;;;;16.48;10.25;;;22.70;99.90;;;;;;5047315;28;20045;-80
2023/08/17 06:30:45;;;;;;;11.48;9.23;;;22.80;99.90;;;;;;5050982;28;20045;-80
2023/08/17 06:33:11;;;;;;;12.88;8.43;;;22.90;99.90;;;;;;5049066;28;20071;-80
2023/08/17 06:35:38;;;;;;;10.68;7.90;;;22.90;99.90;;;;;;5043702;28;20464;-80
2023/08/17 06:38:06;;;;;;;11.43;9.63;;;22.90;99.90;;;;;;5050147;28;20146;-80
2023/08/17 06:40:33;;;;;;;11.45;9.70;;;23.00;99.90;;;;;;5046622;28;20045;-79
2023/08/17 06:42:59;;;;;;;11.38;9.63;;;23.00;99.90;;;;;;5037054;28;20049;-81
2023/08/17 06:45:26;;;;;;;14.57;9.30;;;23.00;99.90;;;;;;5028845;28;20052;-79
2023/08/17 06:47:53;;;;;;;11.48;9.25;;;23.00;99.90;;;;;;5029750;28;20065;-80
2023/08/17 06:50:20;;;;;;;11.35;8.73;;;23.10;99.90;;;;;;5033334;28;20053;-80
2023/08/17 06:52:46;;;;;;;12.40;9.13;;;23.10;99.90;;;;;;5036510;28;20057;-80
2023/08/17 06:55:14;;;;;;;13.77;9.15;;;23.10;99.90;;;;;;5038589;28;20114;-80
2023/08/17 06:57:41;;;;;;;10.40;7.82;;;23.20;99.90;;;;;;5029469;28;20053;-80
2023/08/17 07:00:08;;;;;;;11.30;8.25;;;23.20;99.90;;;;;;5054241;28;20049;-80
2023/08/17 07:02:35;;;;;;;12.77;9.13;;;23.20;99.90;;;;;;5048354;28;20096;-80
2023/08/17 07:05:18;;;;;;;11.05;7.95;;;23.30;99.90;;;;;;5033143;28;20042;-80
2023/08/17 07:07:45;;;;;;;9.32;7.80;;;23.30;99.90;;;;;;5033599;28;20077;-80
2023/08/17 07:10:12;;;;;;;11.20;8.48;;;23.30;99.90;;;;;;5036989;28;20049;-79
2023/08/17 07:12:39;;;;;;;12.43;8.77;;;23.30;99.90;;;;;;5033081;28;20047;-79
2023/08/17 07:15:06;;;;;;;10.02;7.60;;;23.30;99.90;;;;;;5036097;28;20045;-79
2023/08/17 07:17:36;;;;;;;8.07;7.28;;;23.30;99.90;;;;;;5047039;28;20111;-79
2023/08/17 07:20:04;;;;;;;;;;;23.40;99.90;;;;;;5031413;28;20048;-79
2023/08/17 07:22:34;;;;;;;8.90;6.38;;;23.40;99.90;;;;;;5032551;28;20458;-80
2023/08/17 07:25:01;;;;;;;8.23;6.57;;;23.40;99.90;;;;;;5036484;28;20105;-80
2023/08/17 07:27:28;;;;;;;8.45;7.43;;;23.40;99.90;;;;;;5035264;28;20104;-80
2023/08/17 07:29:55;;;;;;;10.70;6.95;;;23.40;99.90;;;;;;5040209;28;20507;-80
2023/08/17 07:32:22;;;;;;;10.73;7.60;;;23.50;99.90;;;;;;5044037;28;20084;-79
2023/08/17 07:34:49;;;;;;;7.85;6.95;;;23.50;99.90;;;;;;5032819;28;20049;-80
2023/08/17 07:37:16;;;;;;;9.73;6.90;;;23.50;99.90;;;;;;5031697;28;20061;-80
2023/08/17 07:39:42;;;;;;;9.80;7.18;;;23.50;99.90;;;;;;5038335;28;20045;-80
2023/08/17 07:42:09;;;;;;;9.52;8.02;;;23.60;99.90;;;;;;5033013;28;20053;-80
2023/08/17 07:44:36;;;;;;;11.45;8.77;;;23.60;99.90;;;;;;5029053;28;20053;-80
2023/08/17 07:47:03;;;;;;;10.25;8.00;;;23.60;99.90;;;;;;5031543;28;20045;-80
2023/08/17 07:49:29;;;;;;;11.63;8.32;;;23.70;99.90;;;;;;5050968;28;20053;-80
2023/08/17 07:51:59;;;;;;;10.65;8.95;;;23.70;99.90;;;;;;5036098;28;20080;-80
2023/08/17 07:54:26;;;;;;;9.82;7.85;;;23.80;99.90;;;;;;5042208;28;20111;-80
2023/08/17 07:56:53;;;;;;;9.82;8.48;;;23.80;99.90;;;;;;5036242;28;20049;-81
2023/08/17 07:59:19;;;;;;;15.30;9.38;;;23.80;99.90;;;;;;5041755;28;20566;-80
2023/08/17 08:01:46;;;;;;;14.57;9.88;;;23.80;99.90;;;;;;5042818;28;20111;-79
2023/08/17 08:04:13;;;;;;;12.85;9.45;;;23.90;99.90;;;;;;5049985;28;20095;-80
2023/08/17 08:06:40;;;;;;;10.80;8.93;;;23.90;99.90;;;;;;5040404;28;20127;-80
2023/08/17 08:09:07;;;;;;;11.82;9.05;;;23.90;99.90;;;;;;5030490;28;20049;-80
2023/08/17 08:11:33;;;;;;;12.15;8.80;;;24.00;99.90;;;;;;5039221;28;20132;-80
2023/08/17 08:14:00;;;;;;;11.18;9.07;;;24.10;99.90;;;;;;5033083;28;20107;-80
2023/08/17 08:16:30;;;;;;;11.50;8.25;;;24.10;99.90;;;;;;5039709;28;20052;-80
2023/08/17 08:18:57;;;;;;;11.50;8.48;;;24.30;99.90;;;;;;5038023;28;20097;-80
2023/08/17 08:21:24;;;;;;;11.38;8.45;;;24.40;99.90;;;;;;5039780;28;20053;-80
2023/08/17 08:23:51;;;;;;;10.98;8.30;;;24.50;99.90;;;;;;5035368;28;20051;-81
2023/08/17 08:26:17;;;;;;;10.27;7.97;;;24.70;99.90;;;;;;5050133;28;20056;-81
2023/08/17 08:28:45;;;;;;;9.80;8.40;;;24.80;99.90;;;;;;5029119;28;20038;-81
2023/08/17 08:31:11;;;;;;;11.35;8.48;;;25.00;99.90;;;;;;5058438;28;20470;-80
2023/08/17 08:33:38;;;;;;;11.32;8.75;;;25.10;99.90;;;;;;5045160;28;20501;-80
2023/08/17 08:36:08;;;;;;;10.23;8.23;;;25.20;99.90;;;;;;5031694;28;20100;-81
2023/08/17 08:38:35;;;;;;;12.93;8.93;;;25.30;99.90;;;;;;5044737;28;20067;-81
2023/08/17 08:41:02;;;;;;;11.98;8.70;;;25.40;99.90;;;;;;5041450;28;20053;-80
2023/08/17 08:43:30;;;;;;;12.02;8.50;;;25.50;99.90;;;;;;5032732;28;20053;-80
2023/08/17 08:45:59;;;;;;;13.63;8.90;;;25.50;99.90;;;;;;5035848;28;20471;-81
2023/08/17 08:48:27;;;;;;;13.48;8.80;;;25.50;99.90;;;;;;5039020;28;20091;-80
2023/08/17 08:50:55;;;;;;;8.50;7.45;;;25.40;99.90;;;;;;5031780;28;20049;-80
2023/08/17 08:53:32;;;;;;;12.60;7.72;;;25.50;99.90;;;;;;5035426;28;20056;-80
2023/08/17 08:56:03;;;;;;;10.20;7.50;;;25.40;99.90;;;;;;5053302;28;20048;-80
2023/08/17 08:58:32;;;;;;;14.93;8.43;;;25.50;99.90;;;;;;5039376;28;20099;-80
2023/08/17 09:01:00;;;;;;;11.60;7.93;;;25.40;99.90;;;;;;5030057;28;20056;-80
2023/08/17 09:03:28;;;;;;;10.95;8.13;;;25.40;99.90;;;;;;5040800;28;20049;-79
2023/08/17 09:05:57;;;;;;;13.60;8.55;;;25.40;99.90;;;;;;5024547;28;20045;-80
2023/08/17 09:08:28;;;;;;;11.95;9.15;;;25.30;99.90;;;;;;5032065;28;20041;-80
2023/08/17 09:10:55;;;;;;;12.35;8.18;;;25.20;99.90;;;;;;5053929;28;20040;-80
2023/08/17 09:13:22;;;;;;;14.07;8.32;;;25.20;99.90;;;;;;5039887;28;20071;-80
2023/08/17 09:15:49;;;;;;;14.15;9.23;;;25.20;99.90;;;;;;5051622;28;20397;-80
2023/08/17 09:18:17;;;;;;;10.48;8.05;;;25.20;99.90;;;;;;5054646;28;20048;-80
2023/08/17 09:20:46;;;;;;;13.30;9.15;;;25.10;99.90;;;;;;5048951;28;20045;-80
2023/08/17 09:23:16;;;;;;;12.30;9.20;;;25.10;99.90;;;;;;5032314;28;20128;-79
2023/08/17 09:25:45;;;;;;;13.82;9.07;;;25.10;99.90;;;;;;5049805;28;20041;-80
2023/08/17 09:28:16;;;;;;;10.27;7.65;;;25.10;99.90;;;;;;5046521;28;20049;-79
2023/08/17 09:30:58;;;;;;;13.25;6.88;;;25.00;99.90;;;;;;5049450;28;20049;-80
2023/08/17 09:33:27;;;;;;;13.02;8.18;;;25.00;99.90;;;;;;5053685;28;20051;-80
2023/08/17 09:35:55;;;;;;;10.20;7.95;;;25.00;99.90;;;;;;5040429;28;20049;-80
2023/08/17 09:38:26;;;;;;;11.95;7.93;;;25.00;99.90;;;;;;5057061;28;20048;-80
2023/08/17 09:40:53;;;;;;;13.55;7.25;;;24.90;99.90;;;;;;5061115;28;20033;-80
2023/08/17 09:43:20;;;;;;;13.48;7.93;;;24.90;99.90;;;;;;5060793;28;20092;-79
2023/08/17 09:45:51;;;;;;;8.52;6.75;;;24.90;99.90;;;;;;5047016;28;20504;-79
2023/08/17 09:48:19;;;;;;;12.38;7.15;;;24.90;99.90;;;;;;5048231;28;20106;-79
2023/08/17 09:50:47;;;;;;;8.50;6.60;;;24.90;99.90;;;;;;5042008;28;20140;-79
2023/08/17 09:53:16;;;;;;;8.25;6.07;;;24.90;99.90;;;;;;5028652;28;20110;-80
2023/08/17 09:55:44;;;;;;;11.35;6.15;;;24.90;99.90;;;;;;5041221;28;20055;-80
2023/08/17 09:58:15;;;;;;;7.07;5.90;;;24.90;99.90;;;;;;5036410;28;20044;-80
2023/08/17 10:00:47;;;;;;;8.45;5.65;;;24.90;99.90;;;;;;5041101;28;20132;-81
2023/08/17 10:03:19;;;;;;;9.00;6.20;;;25.00;99.90;;;;;;5034190;28;20044;-80
2023/08/17 10:05:55;;;;;;;10.80;5.55;;;25.00;99.90;;;;;;5045184;28;20129;-81
2023/08/17 10:08:23;;;;;;;8.02;5.55;;;25.10;99.90;;;;;;5038034;28;20052;-83
2023/08/17 10:10:51;;;;;;;6.18;4.55;;;25.10;99.90;;;;;;5039884;28;20049;-80
2023/08/17 10:13:27;;;;;;;5.45;3.53;;;25.20;99.90;;;;;;5035255;28;20046;-80
2023/08/17 10:16:15;;;;;;;4.45;3.60;;;25.20;99.90;;;;;;5026854;28;20073;-80
2023/08/17 10:18:58;;;;;;;5.75;3.72;;;25.30;99.90;;;;;;5037550;28;20128;-80
2023/08/17 10:21:36;;;;;;;6.78;4.15;;;25.40;99.90;;;;;;5030212;28;20049;-80
2023/08/17 10:24:03;;;;;;;5.25;3.55;;;25.50;99.90;;;;;;5036361;28;20053;-80
2023/08/17 10:26:30;;;;;;;6.68;3.53;;;25.50;99.90;;;;;;5047097;28;20561;-80
2023/08/17 10:29:00;;;;;;;5.63;2.88;;;25.50;99.90;;;;;;5032326;28;20132;-80
2023/08/17 10:31:35;;;;;;;4.38;3.10;;;25.70;99.90;;;;;;5033012;28;20159;-81
2023/08/17 10:34:02;;;;;;;5.32;3.28;;;25.70;99.90;;;;;;5041010;28;20067;-80
2023/08/17 10:36:31;;;;;;;3.50;3.00;;;25.80;99.90;;;;;;5034535;28;20053;-80
2023/08/17 10:39:17;;;;;;;4.25;2.80;;;25.80;99.90;;;;;;5039191;28;20061;-80
2023/08/17 10:41:49;;;;;;;5.60;3.70;;;25.90;99.90;;;;;;5032998;28;20073;-80
2023/08/17 10:44:18;;;;;;;5.28;2.97;;;25.90;99.90;;;;;;5033287;28;20107;-80
2023/08/17 10:46:46;;;;;;;7.30;2.67;;;25.90;99.90;;;;;;5032964;28;20496;-80
2023/08/17 10:49:26;;;;;;;4.93;2.90;;;26.00;99.90;;;;;;5039947;28;20369;-80
2023/08/17 10:52:02;;;;;;;;;;;26.10;99.90;;;;;;5025801;28;20053;-80
2023/08/17 10:54:42;;;;;;;7.30;3.75;;;26.20;99.90;;;;;;5040463;28;19921;-80
2023/08/17 10:57:28;;;;;;;3.60;3.08;;;26.30;99.90;;;;;;5035054;28;20050;-80
2023/08/17 11:00:15;;;;;;;6.15;3.22;;;26.50;99.90;;;;;;5020203;28;20045;-80
2023/08/17 11:02:55;;;;;;;3.95;3.05;;;26.50;99.90;;;;;;5030649;28;20489;-80
2023/08/17 11:05:46;;;;;;;7.03;2.85;;;26.60;99.90;;;;;;5030360;28;20081;-80
2023/08/17 11:08:32;;;;;;;5.63;3.45;;;26.70;99.90;;;;;;5031613;28;20041;-80
2023/08/17 11:11:03;;;;;;;3.30;3.00;;;26.70;99.90;;;;;;5035424;28;20077;-80
2023/08/17 11:13:35;;;;;;;4.25;3.55;;;26.80;99.90;;;;;;5023974;28;20053;-80
2023/08/17 11:16:03;;;;;;;6.53;3.95;;;26.90;99.90;;;;;;5025208;28;20049;-79
2023/08/17 11:18:32;;;;;;;6.53;3.53;;;26.90;99.90;;;;;;5038833;28;20045;-80
2023/08/17 11:21:00;;;;;;;3.85;3.42;;;27.00;99.90;;;;;;5034748;28;20057;-80
2023/08/17 11:23:30;;;;;;;6.25;3.20;;;27.00;99.90;;;;;;5040396;28;20140;-81
2023/08/17 11:25:57;;;;;;;9.90;3.70;;;27.00;99.90;;;;;;5035954;28;20100;-80
2023/08/17 11:28:24;;;;;;;4.47;2.90;;;27.10;99.90;;;;;;5034801;28;20038;-80
2023/08/17 11:30:58;;;;;;;5.40;3.05;;;27.10;99.90;;;;;;5038633;28;20041;-80
2023/08/17 11:33:26;;;;;;;6.00;3.17;;;27.20;99.90;;;;;;5037360;28;20476;-80
2023/08/17 11:36:01;;;;;;;5.53;3.22;;;27.30;99.90;;;;;;5030663;28;20441;-81
2023/08/17 11:38:34;;;;;;;6.40;2.85;;;27.50;99.90;;;;;;5040392;28;20121;-80
2023/08/17 11:41:02;;;;;;;3.85;2.60;;;27.60;99.90;;;;;;5026207;28;20042;-80
2023/08/17 11:43:30;;;;;;;2.65;2.00;;;27.70;99.90;;;;;;5044128;28;20076;-80
2023/08/17 11:45:57;;;;;;;5.20;2.72;;;27.80;99.90;;;;;;5028516;28;20049;-81
2023/08/17 11:48:24;;;;;;;9.02;2.80;;;27.90;99.90;;;;;;5037258;28;20073;-81
2023/08/17 11:50:52;;;;;;;5.88;2.63;;;28.00;99.90;;;;;;5038261;28;20068;-80
2023/08/17 11:53:19;;;;;;;5.60;2.55;;;28.00;99.90;;;;;;5034588;28;20114;-81
2023/08/17 11:55:45;;;;;;;6.88;2.60;;;28.10;99.90;;;;;;5047840;28;20052;-81
2023/08/17 11:58:12;;;;;;;6.00;3.53;;;28.20;99.90;;;;;;5040008;28;20045;-80
2023/08/17 12:00:46;;;;;;;6.43;2.38;;;28.20;99.90;;;;;;5031216;28;20076;-81
2023/08/17 12:03:15;;;;;;;7.38;2.55;;;28.20;99.90;;;;;;5045185;28;20041;-80
2023/08/17 12:05:45;;;;;;;6.80;2.73;;;28.20;99.90;;;;;;5051383;28;20048;-81
2023/08/17 12:08:14;;;;;;;7.93;2.63;;;28.30;99.90;;;;;;5038831;28;20045;-81
2023/08/17 12:10:41;;;;;;;7.55;2.78;;;28.40;99.90;;;;;;5036843;28;20053;-80
2023/08/17 12:13:11;;;;;;;7.00;2.72;;;28.40;99.90;;;;;;5046282;28;20053;-80
2023/08/17 12:15:38;;;;;;;4.95;3.00;;;28.50;99.90;;;;;;5037372;28;20050;-81
2023/08/17 12:18:05;;;;;;;8.52;2.53;;;28.50;99.90;;;;;;5047629;28;20055;-81
2023/08/17 12:20:37;;;;;;;4.03;2.42;;;28.60;99.90;;;;;;5039931;28;20069;-80
2023/08/17 12:23:05;;;;;;;7.35;3.00;;;28.60;99.90;;;;;;5042558;28;20114;-81
2023/08/17 12:25:31;;;;;;;9.35;2.47;;;28.60;99.90;;;;;;5037539;28;20128;-80
2023/08/17 12:28:00;;;;;;;5.75;2.72;;;28.60;99.90;;;;;;5044297;28;20053;-82
2023/08/17 12:30:32;;;;;;;6.15;2.50;;;28.60;99.90;;;;;;5027014;28;20263;-81
2023/08/17 12:32:59;;;;;;;7.03;3.10;;;28.60;99.90;;;;;;5039702;28;20089;-81
2023/08/17 12:35:26;;;;;;;6.47;2.92;;;28.60;99.90;;;;;;5043272;28;20056;-81
2023/08/17 12:37:54;;;;;;;5.88;3.13;;;28.60;99.90;;;;;;5039232;28;20055;-81
2023/08/17 12:40:21;;;;;;;5.53;2.60;;;28.60;99.90;;;;;;5038562;28;20065;-80
2023/08/17 12:42:48;;;;;;;6.65;2.65;;;28.60;99.90;;;;;;5043369;28;20098;-82
2023/08/17 12:45:16;;;;;;;4.53;2.83;;;28.50;99.90;;;;;;5027384;28;20082;-82
2023/08/17 12:47:42;;;;;;;8.82;2.90;;;28.50;99.90;;;;;;5044756;28;20041;-81